Time;durP1;ratioP1;P1;durP2;ratioP2;P2;SDS_P1;SDS_P2;PMS_P1;PMS_P2;Temp;Humidity;BMP_temperature;BMP_pressure;BME280_temperature;BME280_humidity;BME280_pressure;Samples;Min_cycle;Max_cycle;Signal;HPM_P1;HPM_P2
2024/01/17 00:01:42;;;;;;;4.73;1.40;;;;;;;11.81;73.89;98389.06;4991681;28;20027;-91
2024/01/17 00:04:08;;;;;;;5.38;1.40;;;;;;;11.84;73.49;98384.56;4991415;28;20034;-87
2024/01/17 00:06:33;;;;;;;4.47;1.53;;;;;;;11.86;74.22;98379.19;4990838;28;20031;-90
2024/01/17 00:08:59;;;;;;;4.72;1.40;;;;;;;11.88;74.07;98388.78;4991501;28;20475;-89
2024/01/17 00:11:24;;;;;;;5.00;1.70;;;;;;;11.88;73.90;98387.91;4991109;28;20415;-89
2024/01/17 00:13:50;;;;;;;4.50;1.50;;;;;;;11.87;73.94;98388.81;4991240;28;20029;-89
2024/01/17 00:16:22;;;;;;;5.93;1.70;;;;;;;11.84;73.86;98381.03;4991651;28;20033;-90
2024/01/17 00:18:48;;;;;;;4.63;1.38;;;;;;;11.81;74.06;98378.53;4973996;28;20423;-89
2024/01/17 00:21:14;;;;;;;6.03;1.90;;;;;;;11.81;73.99;98355.63;4991829;28;20033;-89
2024/01/17 00:23:39;;;;;;;6.60;1.50;;;;;;;11.84;74.05;98370.50;4991388;28;20221;-91
2024/01/17 00:26:05;;;;;;;5.20;1.60;;;;;;;11.84;74.14;98374.00;5000470;28;20169;-91
2024/01/17 00:28:31;;;;;;;5.90;1.80;;;;;;;11.84;74.31;98371.38;4990885;28;20041;-89
2024/01/17 00:30:57;;;;;;;5.38;1.80;;;;;;;11.82;74.34;98375.84;4990905;28;20022;-90
2024/01/17 00:33:22;;;;;;;8.93;2.00;;;;;;;11.82;74.38;98374.97;4991229;28;20372;-91
2024/01/17 00:35:48;;;;;;;4.78;1.85;;;;;;;11.83;74.43;98377.56;4997381;28;20389;-90
2024/01/17 00:38:13;;;;;;;5.97;2.30;;;;;;;11.83;74.63;98387.22;5010907;28;20056;-91
2024/01/17 00:40:39;;;;;;;7.27;1.90;;;;;;;11.84;74.31;98378.41;5001398;28;20110;-89
2024/01/17 00:43:05;;;;;;;5.90;2.22;;;;;;;11.82;74.34;98391.66;4990383;28;20022;-87
2024/01/17 00:45:30;;;;;;;6.93;2.07;;;;;;;11.78;74.70;98396.19;4990165;28;20035;-88
2024/01/17 00:47:56;;;;;;;8.17;2.50;;;;;;;11.83;74.84;98414.47;4991040;28;20286;-91
2024/01/17 00:50:22;;;;;;;7.70;2.40;;;;;;;11.84;74.84;98415.31;4990861;28;20053;-92
2024/01/17 00:52:48;;;;;;;7.30;2.42;;;;;;;11.85;74.51;98427.59;4991578;28;20073;-88
2024/01/17 00:55:13;;;;;;;8.37;3.00;;;;;;;11.84;74.69;98428.50;4991252;28;20027;-89
2024/01/17 00:57:39;;;;;;;6.88;2.63;;;;;;;11.80;75.12;98434.81;4990514;28;20459;-90
2024/01/17 01:00:05;;;;;;;8.90;3.37;;;;;;;11.76;75.38;98429.69;4991050;28;20121;-91
2024/01/17 01:02:31;;;;;;;8.10;3.30;;;;;;;11.77;75.40;98436.66;4991347;28;20030;-91
2024/01/17 01:04:56;;;;;;;9.40;2.83;;;;;;;11.76;75.27;98448.13;4991089;28;20496;-89
2024/01/17 01:07:21;;;;;;;10.03;3.83;;;;;;;11.73;75.80;98450.88;4991194;28;20030;-90
2024/01/17 01:09:47;;;;;;;9.30;3.27;;;;;;;11.73;75.49;98450.88;4992446;28;20053;-90
2024/01/17 01:12:12;;;;;;;11.55;3.75;;;;;;;11.73;75.90;98453.53;4974764;28;20411;-88
2024/01/17 01:14:38;;;;;;;9.57;3.93;;;;;;;11.71;76.02;98455.38;4993183;28;20399;-86
2024/01/17 01:17:04;;;;;;;10.73;4.27;;;;;;;11.68;76.25;98437.00;4994528;28;20028;-83
2024/01/17 01:19:29;;;;;;;10.55;4.20;;;;;;;11.68;76.34;98420.34;4994415;28;20446;-89
2024/01/17 01:21:54;;;;;;;9.90;4.27;;;;;;;11.69;76.51;98412.34;4994482;28;20034;-86
2024/01/17 01:24:20;;;;;;;13.83;5.60;;;;;;;11.65;77.12;98405.47;4999003;28;20076;-89
2024/01/17 01:26:45;;;;;;;10.97;5.23;;;;;;;11.60;77.20;98405.69;4998859;28;20080;-86
2024/01/17 01:29:11;;;;;;;13.60;5.32;;;;;;;11.57;77.60;98399.66;4994214;28;20037;-85
2024/01/17 01:31:36;;;;;;;11.63;5.73;;;;;;;11.54;77.95;98400.63;4994126;28;20113;-87
2024/01/17 01:34:01;;;;;;;11.83;5.53;;;;;;;11.54;77.94;98418.22;4994478;28;20030;-89
2024/01/17 01:36:27;;;;;;;15.23;7.03;;;;;;;11.51;78.47;98447.34;5005313;28;20065;-84
2024/01/17 01:38:52;;;;;;;15.23;6.33;;;;;;;11.47;78.43;98433.41;5013621;28;20285;-85
2024/01/17 01:41:17;;;;;;;13.17;6.50;;;;;;;11.47;78.16;98452.72;5000032;28;20025;-86
2024/01/17 01:43:43;;;;;;;12.50;6.23;;;;;;;11.47;78.51;98465.03;4993903;28;20491;-90
2024/01/17 01:46:22;;;;;;;13.93;6.97;;;;;;;11.49;78.62;98452.66;4993610;28;20050;-88
2024/01/17 01:48:49;;;;;;;17.20;6.72;;;;;;;11.46;78.60;98480.00;4994145;28;20068;-90
2024/01/17 01:51:15;;;;;;;16.27;7.68;;;;;;;11.44;78.89;98468.63;4993964;28;20097;-87
2024/01/17 01:53:48;;;;;;;18.17;7.93;;;;;;;11.41;79.34;98423.94;4994083;28;20026;-91
2024/01/17 01:56:16;;;;;;;17.02;9.20;;;;;;;11.39;79.09;98409.97;4994401;28;20023;-89
2024/01/17 01:58:45;;;;;;;19.90;8.60;;;;;;;11.33;80.03;98411.09;4994240;28;20031;-88
2024/01/17 02:01:11;;;;;;;18.77;9.65;;;;;;;11.28;80.39;98385.81;4993603;28;20500;-89
2024/01/17 02:03:40;;;;;;;17.83;9.75;;;;;;;11.25;80.58;98343.78;4994077;28;20041;-89
2024/01/17 02:06:06;;;;;;;20.08;10.32;;;;;;;11.23;80.21;98345.59;4993769;28;20042;-85
2024/01/17 02:08:32;;;;;;;20.97;9.93;;;;;;;11.19;80.61;98343.06;4993678;28;20027;-89
2024/01/17 02:10:58;;;;;;;22.67;11.68;;;;;;;11.18;80.94;98333.44;4993635;28;20030;-88
2024/01/17 02:13:23;;;;;;;21.43;12.60;;;;;;;11.15;81.46;98315.13;4993745;28;20037;-91
2024/01/17 02:15:49;;;;;;;22.35;10.95;;;;;;;11.16;81.25;98314.19;4993753;28;20033;-91
2024/01/17 02:18:14;;;;;;;25.60;10.50;;;;;;;11.15;81.72;98278.25;4993631;28;20030;-90
2024/01/17 02:20:40;;;;;;;22.57;11.00;;;;;;;11.10;82.08;98267.03;4993589;28;20048;-90
2024/01/17 02:23:26;;;;;;;24.97;11.60;;;;;;;11.11;82.32;98247.66;4993606;28;20395;-91
2024/01/17 02:25:53;;;;;;;28.27;11.87;;;;;;;11.12;81.86;98233.59;5000921;28;20424;-89
2024/01/17 02:28:18;;;;;;;27.15;12.40;;;;;;;11.11;82.26;98226.59;4975927;28;20462;-88
2024/01/17 02:30:44;;;;;;;25.00;13.10;;;;;;;11.12;82.64;98212.50;4993446;28;20026;-90
2024/01/17 02:33:10;;;;;;;29.83;14.63;;;;;;;11.13;82.33;98201.06;4993467;28;20406;-89
2024/01/17 02:35:37;;;;;;;27.70;12.02;;;;;;;11.15;82.57;98206.28;4997506;28;20022;-90
2024/01/17 02:38:03;;;;;;;27.65;12.18;;;;;;;11.11;83.00;98199.41;5013148;28;20045;-90
2024/01/17 02:40:28;;;;;;;23.73;11.67;;;;;;;11.11;82.54;98197.63;5005565;28;20042;-90
2024/01/17 02:42:54;;;;;;;22.20;10.45;;;;;;;11.12;82.40;98185.31;4992981;28;20105;-88
2024/01/17 02:45:21;;;;;;;26.92;14.63;;;;;;;11.12;83.09;98185.31;4992888;28;20411;-89
2024/01/17 02:47:46;;;;;;;26.43;11.57;;;;;;;11.14;82.40;98186.97;4992652;28;20066;-89
2024/01/17 02:50:14;;;;;;;29.13;16.20;;;;;;;11.12;83.65;98190.59;4992639;28;20452;-88
2024/01/17 02:52:43;;;;;;;30.67;12.98;;;;;;;11.10;83.29;98185.38;4993101;28;20426;-89
2024/01/17 02:55:10;;;;;;;27.10;12.10;;;;;;;11.12;83.36;98190.59;4993100;28;20678;-89
2024/01/17 02:57:36;;;;;;;30.20;15.35;;;;;;;11.08;83.57;98184.56;4996784;28;20089;-90
2024/01/17 03:00:01;;;;;;;28.70;13.00;;;;;;;11.10;83.45;98181.91;5008643;28;20054;-89
2024/01/17 03:02:27;;;;;;;30.42;15.70;;;;;;;11.04;84.19;98172.47;5000896;28;20050;-88
2024/01/17 03:04:52;;;;;;;32.17;14.47;;;;;;;11.10;83.77;98184.53;4992549;28;20073;-90
2024/01/17 03:07:18;;;;;;;32.73;14.97;;;;;;;11.09;83.93;98190.69;4992718;28;20121;-90
2024/01/17 03:09:43;;;;;;;29.08;12.18;;;;;;;11.10;83.73;98181.91;4992643;28;20026;-87
2024/01/17 03:12:09;;;;;;;25.77;12.70;;;;;;;11.05;83.84;98171.53;4992624;28;20031;-87
2024/01/17 03:14:35;;;;;;;33.78;15.15;;;;;;;11.07;84.20;98164.44;4992269;28;20049;-90
2024/01/17 03:17:01;;;;;;;33.17;16.23;;;;;;;11.11;83.95;98170.44;4992506;28;20167;-90
2024/01/17 03:19:26;;;;;;;28.60;12.48;;;;;;;11.12;84.23;98172.16;4974984;28;20658;-91
2024/01/17 03:21:52;;;;;;;26.40;12.00;;;;;;;11.07;84.43;98169.69;4974866;28;20038;-90
2024/01/17 03:24:17;;;;;;;30.20;12.73;;;;;;;11.08;83.94;98179.31;4996808;28;20091;-90
2024/01/17 03:26:43;;;;;;;29.15;12.27;;;;;;;11.08;84.28;98179.31;4996820;28;20120;-85
2024/01/17 03:29:08;;;;;;;31.47;13.33;;;;;;;11.08;84.00;98183.72;4991836;28;20026;-89
2024/01/17 03:31:34;;;;;;;36.00;17.13;;;;;;;11.08;84.39;98178.44;4991981;28;20046;-83
2024/01/17 03:33:59;;;;;;;35.15;15.35;;;;;;;11.09;84.62;98182.78;4992051;28;20173;-87
2024/01/17 03:36:25;;;;;;;28.07;11.60;;;;;;;11.04;84.22;98172.47;5002408;28;20034;-89
2024/01/17 03:38:50;;;;;;;30.37;12.47;;;;;;;11.05;84.47;98179.44;5003537;28;20030;-86
2024/01/17 03:41:15;;;;;;;27.10;12.83;;;;;;;11.05;84.23;98174.16;5005898;28;20033;-88
2024/01/17 03:43:41;;;;;;;30.35;12.55;;;;;;;11.05;84.69;98174.16;5011505;28;20041;-88
2024/01/17 03:46:06;;;;;;;25.90;10.83;;;;;;;11.00;84.75;98160.34;5011425;28;20089;-91
2024/01/17 03:48:33;;;;;;;24.97;10.43;;;;;;;10.98;84.32;98152.47;5011384;28;20117;-91
2024/01/17 03:50:58;;;;;;;27.55;11.27;;;;;;;11.01;84.48;98135.72;5008796;28;20026;-89
2024/01/17 03:53:23;;;;;;;24.87;10.50;;;;;;;11.03;84.01;98136.50;4974229;28;20026;-90
2024/01/17 03:55:49;;;;;;;26.77;10.87;;;;;;;11.00;84.54;98128.72;4991820;28;20061;-87
2024/01/17 03:58:14;;;;;;;28.30;11.27;;;;;;;10.99;84.70;98124.38;4991858;28;20053;-89
2024/01/17 04:00:39;;;;;;;22.57;10.03;;;;;;;10.95;84.59;98120.13;4991550;28;20054;-87
2024/01/17 04:03:05;;;;;;;28.87;11.47;;;;;;;10.94;84.95;98129.81;4974470;28;20018;-89
2024/01/17 04:05:30;;;;;;;22.33;9.70;;;;;;;10.93;84.85;98116.72;4991846;28;20050;-87
2024/01/17 04:07:56;;;;;;;24.93;9.63;;;;;;;10.93;84.54;98103.53;4991625;28;20434;-91
2024/01/17 04:10:21;;;;;;;29.67;10.40;;;;;;;10.90;84.53;98100.13;4991507;28;20084;-88
2024/01/17 04:12:46;;;;;;;23.73;10.20;;;;;;;10.91;84.53;98093.94;4991535;28;20072;-87
2024/01/17 04:15:12;;;;;;;23.03;10.37;;;;;;;10.88;84.71;98077.41;4991488;28;20038;-90
2024/01/17 04:17:37;;;;;;;23.97;10.70;;;;;;;10.87;84.98;98073.06;4991447;28;20216;-90
2024/01/17 04:20:05;;;;;;;25.65;11.02;;;;;;;10.84;85.28;98071.41;4991401;28;20030;-90
2024/01/17 04:22:31;;;;;;;23.98;10.57;;;;;;;10.83;85.54;98063.56;4991598;28;20442;-91
2024/01/17 04:24:56;;;;;;;22.60;9.67;;;;;;;10.86;84.87;98066.09;4991274;28;20040;-91
2024/01/17 04:27:22;;;;;;;23.10;9.83;;;;;;;10.81;85.26;98076.81;4991400;28;20065;-91
2024/01/17 04:29:47;;;;;;;24.60;9.97;;;;;;;10.82;84.81;98082.91;4990896;28;20274;-89
2024/01/17 04:32:13;;;;;;;21.87;10.43;;;;;;;10.83;84.72;98069.69;4990838;28;20022;-90
2024/01/17 04:34:38;;;;;;;23.83;9.90;;;;;;;10.81;85.34;98076.81;4991008;28;20383;-90
2024/01/17 04:37:04;;;;;;;23.73;10.20;;;;;;;10.82;85.05;98075.88;5007365;28;20030;-89
2024/01/17 04:39:29;;;;;;;24.23;10.87;;;;;;;10.77;85.12;98057.63;5010665;28;20026;-87
2024/01/17 04:41:56;;;;;;;28.83;10.40;;;;;;;10.78;85.24;98050.59;4991896;28;20022;-90
2024/01/17 04:44:21;;;;;;;26.98;13.07;;;;;;;10.74;85.93;98054.28;4991087;28;20049;-90
2024/01/17 04:46:47;;;;;;;25.80;9.73;;;;;;;10.76;85.33;98057.72;4991390;28;20030;-90
2024/01/17 04:49:12;;;;;;;23.20;10.67;;;;;;;10.77;85.20;98059.41;4989652;28;20079;-81
2024/01/17 04:51:38;;;;;;;21.73;9.67;;;;;;;10.79;85.39;98062.84;4990608;28;20027;-89
2024/01/17 04:54:03;;;;;;;21.30;8.65;;;;;;;10.81;84.92;98061.00;4990917;28;20022;-88
2024/01/17 04:56:29;;;;;;;22.07;9.23;;;;;;;10.82;84.84;98046.03;4990872;28;20471;-90
2024/01/17 04:58:54;;;;;;;21.23;9.03;;;;;;;10.83;84.87;98043.38;4990602;28;20029;-90
2024/01/17 05:01:20;;;;;;;24.30;9.80;;;;;;;10.86;84.92;98040.59;4990860;28;20400;-90
2024/01/17 05:03:45;;;;;;;21.60;9.63;;;;;;;10.81;85.37;98034.69;4991432;28;20030;-91
2024/01/17 05:06:11;;;;;;;20.33;8.77;;;;;;;10.84;85.06;98036.31;4990571;28;20026;-88
2024/01/17 05:08:36;;;;;;;20.15;8.05;;;;;;;10.81;85.45;98016.25;4990806;28;20097;-89
2024/01/17 05:11:02;;;;;;;19.97;8.63;;;;;;;10.80;85.47;97998.75;4991061;28;20406;-90
2024/01/17 05:13:28;;;;;;;18.73;8.03;;;;;;;10.81;85.33;98024.16;4991036;28;20037;-89
2024/01/17 05:15:53;;;;;;;20.95;9.07;;;;;;;10.77;85.06;98015.50;4990698;28;20034;-90
2024/01/17 05:18:19;;;;;;;21.10;7.90;;;;;;;10.77;85.49;98018.13;4990699;28;20494;-91
2024/01/17 05:20:44;;;;;;;18.77;7.90;;;;;;;10.75;85.42;98014.72;4991237;28;20030;-89
2024/01/17 05:23:09;;;;;;;19.83;8.30;;;;;;;10.74;85.36;98012.16;4991869;28;20014;-87
2024/01/17 05:25:35;;;;;;;19.17;8.40;;;;;;;10.72;85.84;98013.97;5018366;28;20031;-89
2024/01/17 05:28:00;;;;;;;21.90;8.60;;;;;;;10.75;85.77;98019.16;5004097;28;20030;-91
2024/01/17 05:30:26;;;;;;;19.70;9.40;;;;;;;10.70;85.92;98014.06;4986261;28;20025;-90
2024/01/17 05:32:54;;;;;;;17.83;7.38;;;;;;;10.72;85.53;98011.34;4992406;28;20034;-90
2024/01/17 05:35:21;;;;;;;18.80;8.23;;;;;;;10.69;86.14;98012.34;4991541;28;20498;-90
2024/01/17 05:37:47;;;;;;;21.63;8.43;;;;;;;10.70;86.19;98021.09;5010643;28;20026;-86
2024/01/17 05:40:13;;;;;;;18.42;7.47;;;;;;;10.72;86.00;98019.25;5005229;28;20077;-90
2024/01/17 05:42:41;;;;;;;18.90;8.15;;;;;;;10.74;86.52;98017.44;4991180;28;20026;-88
2024/01/17 05:45:07;;;;;;;17.20;8.00;;;;;;;10.74;85.65;98020.06;4990170;28;20026;-90
2024/01/17 05:47:37;;;;;;;19.38;7.13;;;;;;;10.75;86.21;98016.50;4990751;28;20254;-90
2024/01/17 05:50:04;;;;;;;20.00;8.27;;;;;;;10.72;85.91;97996.41;4990364;28;20113;-89
2024/01/17 05:52:30;;;;;;;18.65;6.65;;;;;;;10.65;86.29;98012.53;4990435;28;20081;-91
2024/01/17 05:54:56;;;;;;;18.35;7.10;;;;;;;10.71;86.31;97999.97;4990385;28;20506;-88
2024/01/17 05:57:22;;;;;;;16.93;7.67;;;;;;;10.72;86.35;97992.91;4990231;28;20114;-89
2024/01/17 05:59:47;;;;;;;19.25;9.95;;;;;;;10.73;86.76;97997.25;4991008;28;20391;-88
2024/01/17 06:02:13;;;;;;;18.80;7.30;;;;;;;10.74;86.71;97996.38;4994060;28;20407;-90
2024/01/17 06:04:39;;;;;;;16.63;7.32;;;;;;;10.73;86.63;97986.72;4993936;28;20057;-90
2024/01/17 06:07:04;;;;;;;17.97;7.50;;;;;;;10.72;86.46;97992.91;4993450;28;20022;-90
2024/01/17 06:09:29;;;;;;;18.13;7.87;;;;;;;10.67;86.99;97987.88;4993624;28;20552;-88
2024/01/17 06:11:55;;;;;;;21.10;7.47;;;;;;;10.72;86.55;97971.84;4976205;28;20297;-92
2024/01/17 06:14:20;;;;;;;14.68;6.70;;;;;;;10.74;86.88;97985.84;4993517;28;20477;-92
2024/01/17 06:16:47;;;;;;;15.10;6.63;;;;;;;10.75;87.06;97992.81;4994001;28;20031;-88
2024/01/17 06:19:14;;;;;;;18.05;6.95;;;;;;;10.73;87.07;98005.16;4994020;28;20503;-92
2024/01/17 06:21:40;;;;;;;14.50;6.70;;;;;;;10.76;86.24;97998.00;4992409;28;20129;-90
2024/01/17 06:24:05;;;;;;;16.58;7.03;;;;;;;10.78;86.79;98008.47;4991764;28;20133;-90
2024/01/17 06:26:30;;;;;;;14.13;6.20;;;;;;;10.73;87.51;98013.94;4992364;28;20030;-90
2024/01/17 06:28:56;;;;;;;14.13;6.23;;;;;;;10.76;87.16;98005.06;4994274;28;20036;-90
2024/01/17 06:31:25;;;;;;;15.20;7.00;;;;;;;10.76;87.17;97997.16;4977168;28;20031;-91
2024/01/17 06:33:51;;;;;;;17.20;6.72;;;;;;;10.80;86.83;97985.56;4994852;28;20049;-90
2024/01/17 06:36:17;;;;;;;12.68;5.47;;;;;;;10.79;86.84;97989.13;4995011;28;20030;-91
2024/01/17 06:38:43;;;;;;;13.43;6.00;;;;;;;10.76;87.42;97984.84;4994125;28;20422;-90
2024/01/17 06:41:08;;;;;;;16.03;7.57;;;;;;;10.78;86.98;97995.31;4994466;28;20276;-91
2024/01/17 06:43:34;;;;;;;14.40;6.13;;;;;;;10.80;87.28;97990.84;4995002;28;20026;-91
2024/01/17 06:45:59;;;;;;;15.53;7.47;;;;;;;10.76;87.53;97984.84;4993201;28;20026;-83
2024/01/17 06:48:24;;;;;;;10.97;5.30;;;;;;;10.74;87.57;97991.94;4991982;28;20461;-85
2024/01/17 06:50:50;;;;;;;13.33;5.90;;;;;;;10.73;87.80;97999.91;4991663;28;20326;-84
2024/01/17 06:53:17;;;;;;;13.33;6.37;;;;;;;10.76;87.05;97999.78;4989623;28;20030;-86
2024/01/17 06:55:43;;;;;;;14.88;6.97;;;;;;;10.77;87.15;98010.25;4991576;28;20109;-87
2024/01/17 06:58:08;;;;;;;12.93;5.87;;;;;;;10.80;87.15;98011.91;4991255;28;20117;-86
2024/01/17 07:00:34;;;;;;;15.37;8.50;;;;;;;10.83;87.11;98006.50;4991999;28;20050;-84
2024/01/17 07:03:00;;;;;;;12.80;6.18;;;;;;;10.81;87.56;98005.72;4974792;28;20027;-86
2024/01/17 07:05:26;;;;;;;12.48;5.97;;;;;;;10.84;87.59;98002.09;4987511;28;20035;-87
2024/01/17 07:07:51;;;;;;;13.40;7.43;;;;;;;10.83;87.63;97998.63;4979255;28;20026;-84
2024/01/17 07:10:16;;;;;;;12.73;6.03;;;;;;;10.85;87.46;97993.25;4991247;28;20030;-85
2024/01/17 07:12:42;;;;;;;11.83;6.17;;;;;;;10.83;87.71;97995.09;4989706;28;20450;-86
2024/01/17 07:15:08;;;;;;;12.70;5.57;;;;;;;10.86;86.92;98001.13;4991464;28;20030;-86
2024/01/17 07:17:33;;;;;;;16.07;6.37;;;;;;;10.88;87.21;97996.63;4991187;28;20125;-86
2024/01/17 07:19:59;;;;;;;13.07;5.72;;;;;;;10.87;87.01;97992.28;4991924;28;20113;-79
2024/01/17 07:22:24;;;;;;;14.30;5.77;;;;;;;10.87;87.15;97999.34;4991349;28;20034;-86
2024/01/17 07:24:49;;;;;;;14.47;6.33;;;;;;;10.87;86.81;97996.72;4992122;28;20053;-88
2024/01/17 07:27:15;;;;;;;11.13;5.17;;;;;;;10.88;86.84;97988.72;4974133;28;20125;-87
2024/01/17 07:29:40;;;;;;;12.93;6.07;;;;;;;10.90;87.22;97996.59;4991965;28;20026;-89
2024/01/17 07:32:06;;;;;;;11.97;5.37;;;;;;;10.90;86.95;97992.16;4990734;28;20442;-86
2024/01/17 07:34:31;;;;;;;11.10;6.00;;;;;;;10.86;86.96;97987.09;4991915;28;20034;-88
2024/01/17 07:36:56;;;;;;;14.30;6.77;;;;;;;10.88;86.99;97977.38;4994494;28;20102;-89
2024/01/17 07:39:22;;;;;;;13.35;6.22;;;;;;;10.86;86.96;97974.78;4992583;28;20048;-88
2024/01/17 07:41:48;;;;;;;14.70;5.77;;;;;;;10.87;86.96;97981.75;4990877;28;20521;-83
2024/01/17 07:44:14;;;;;;;13.40;7.03;;;;;;;10.88;86.91;97983.47;4991839;28;20079;-89
2024/01/17 07:46:39;;;;;;;13.50;5.93;;;;;;;10.90;87.00;97980.78;4992495;28;20510;-87
2024/01/17 07:49:05;;;;;;;12.00;5.93;;;;;;;10.91;86.62;97982.50;4991498;28;20030;-87
2024/01/17 07:51:30;;;;;;;15.07;6.70;;;;;;;10.90;87.43;97980.78;4991421;28;20030;-89
2024/01/17 07:53:59;;;;;;;12.60;5.70;;;;;;;10.91;87.08;97975.44;4992379;28;20030;-86
2024/01/17 07:56:24;;;;;;;14.02;6.07;;;;;;;10.91;86.83;97978.06;4973501;28;20030;-85
2024/01/17 07:58:50;;;;;;;11.97;5.87;;;;;;;10.93;86.80;97979.78;4991858;28;20121;-80
2024/01/17 08:01:16;;;;;;;12.20;6.03;;;;;;;10.95;86.78;97970.03;4992512;28;20042;-88
2024/01/17 08:03:42;;;;;;;12.40;6.53;;;;;;;10.96;87.20;97971.75;4991540;28;20566;-89
2024/01/17 08:06:07;;;;;;;12.13;5.57;;;;;;;10.96;87.10;97977.00;4991111;28;20328;-87
2024/01/17 08:08:33;;;;;;;13.87;5.33;;;;;;;10.96;87.13;97972.63;4991262;28;20704;-87
2024/01/17 08:10:58;;;;;;;11.40;5.50;;;;;;;10.98;86.70;97975.19;4990783;28;20109;-87
2024/01/17 08:13:24;;;;;;;10.70;5.15;;;;;;;11.00;86.58;97981.25;4992124;28;20399;-89
2024/01/17 08:15:49;;;;;;;10.47;4.43;;;;;;;11.01;86.63;97973.28;4991592;28;20040;-88
2024/01/17 08:18:14;;;;;;;12.97;5.13;;;;;;;11.02;86.68;97976.78;4991037;28;20467;-88
2024/01/17 08:20:40;;;;;;;11.87;5.10;;;;;;;11.04;86.44;97986.31;4982462;28;20086;-87
2024/01/17 08:23:05;;;;;;;9.20;4.20;;;;;;;11.06;86.56;97996.78;4990559;28;20031;-86
2024/01/17 08:25:31;;;;;;;11.07;4.90;;;;;;;11.08;86.61;97992.31;5000906;28;20404;-87
2024/01/17 08:27:59;;;;;;;10.88;4.97;;;;;;;11.06;86.86;97986.25;4974653;28;20505;-88
2024/01/17 08:30:24;;;;;;;10.20;4.67;;;;;;;11.02;86.71;97980.25;4992211;28;20034;-87
2024/01/17 08:32:52;;;;;;;10.07;4.90;;;;;;;11.07;86.82;97985.31;5004177;28;20037;-83
2024/01/17 08:35:17;;;;;;;11.15;4.78;;;;;;;11.09;86.39;97986.13;4983954;28;20043;-86
2024/01/17 08:37:43;;;;;;;10.60;4.90;;;;;;;11.11;86.37;97986.06;5014229;28;20410;-86
2024/01/17 08:40:09;;;;;;;9.87;4.30;;;;;;;11.12;86.65;97985.97;4989341;28;20113;-84
2024/01/17 08:42:34;;;;;;;9.10;4.40;;;;;;;11.15;86.40;97980.56;4990515;28;20066;-83
2024/01/17 08:45:01;;;;;;;9.80;4.70;;;;;;;11.16;86.39;97982.28;4990218;28;20064;-84
2024/01/17 08:47:26;;;;;;;11.18;4.97;;;;;;;11.17;86.77;97989.25;4990853;28;20022;-88
2024/01/17 08:49:53;;;;;;;11.97;4.83;;;;;;;11.19;86.31;97992.69;4990381;28;20022;-87
2024/01/17 08:52:19;;;;;;;8.23;3.90;;;;;;;11.13;86.83;97997.38;4990413;28;20035;-87
2024/01/17 08:54:45;;;;;;;11.13;4.90;;;;;;;11.19;86.79;97992.69;4990487;28;20445;-85
2024/01/17 08:57:10;;;;;;;9.23;4.32;;;;;;;11.22;86.54;97985.59;4990423;28;20053;-87
2024/01/17 08:59:35;;;;;;;11.97;5.43;;;;;;;11.21;86.88;97984.72;4990251;28;20347;-85
2024/01/17 09:02:02;;;;;;;9.93;4.50;;;;;;;11.25;86.11;97985.47;4990487;28;20165;-83
2024/01/17 09:04:29;;;;;;;11.50;4.53;;;;;;;11.23;86.16;97982.88;4990439;28;20034;-82
2024/01/17 09:06:55;;;;;;;12.02;5.05;;;;;;;11.26;86.47;97969.56;4990478;28;20031;-88
2024/01/17 09:09:22;;;;;;;9.67;4.37;;;;;;;11.28;86.34;97969.50;4990241;28;20479;-88
2024/01/17 09:11:47;;;;;;;9.57;4.78;;;;;;;11.29;86.44;97961.53;4990242;28;20616;-87
2024/01/17 09:14:13;;;;;;;9.75;4.95;;;;;;;11.28;86.45;97948.44;4972542;28;20030;-88
2024/01/17 09:16:38;;;;;;;11.27;5.00;;;;;;;11.28;86.45;97948.44;4990378;28;20376;-83
2024/01/17 09:19:04;;;;;;;10.73;5.00;;;;;;;11.30;86.19;97951.84;4990820;28;20110;-81
2024/01/17 09:21:31;;;;;;;9.32;4.90;;;;;;;11.32;85.87;97950.00;4991150;28;20505;-84
2024/01/17 09:23:57;;;;;;;10.30;5.00;;;;;;;11.31;86.67;97951.78;4992549;28;20508;-86
2024/01/17 09:26:23;;;;;;;10.10;4.07;;;;;;;11.33;86.00;97949.94;4998480;28;20034;-88
2024/01/17 09:28:48;;;;;;;11.00;4.93;;;;;;;11.35;86.15;97934.06;4990659;28;20033;-87
2024/01/17 09:31:14;;;;;;;14.48;4.75;;;;;;;11.40;86.19;97947.88;4990714;28;20045;-87
2024/01/17 09:33:39;;;;;;;12.50;5.40;;;;;;;11.39;85.99;97956.69;4990737;28;20112;-89
2024/01/17 09:36:05;;;;;;;12.10;5.93;;;;;;;11.37;86.60;97960.34;5002456;28;20106;-86
2024/01/17 09:38:31;;;;;;;10.27;4.97;;;;;;;11.40;86.30;97958.41;5015119;28;20323;-86
2024/01/17 09:40:56;;;;;;;12.05;4.97;;;;;;;11.36;86.36;97967.38;5003532;28;20479;-88
2024/01/17 09:43:23;;;;;;;12.00;5.50;;;;;;;11.41;86.14;97968.03;4994722;28;20058;-88
2024/01/17 09:45:48;;;;;;;11.25;5.38;;;;;;;11.43;85.98;97962.69;4994278;28;20026;-89
2024/01/17 09:48:18;;;;;;;10.37;5.40;;;;;;;11.43;85.75;97974.09;4995959;28;20057;-88
2024/01/17 09:50:46;;;;;;;11.27;6.20;;;;;;;11.45;85.82;97972.25;5001269;28;20026;-88
2024/01/17 09:53:15;;;;;;;9.35;4.63;;;;;;;11.51;85.76;97975.53;5000606;28;20137;-86
2024/01/17 09:55:41;;;;;;;11.30;5.10;;;;;;;11.54;85.71;97972.75;4995125;28;20115;-89
2024/01/17 09:58:09;;;;;;;11.23;5.35;;;;;;;11.54;85.91;97973.59;4994728;28;20113;-89
2024/01/17 10:00:36;;;;;;;15.77;9.43;;;;;;;11.56;85.76;97974.38;4994041;28;20518;-88
2024/01/17 10:03:04;;;;;;;10.05;5.60;;;;;;;11.56;85.76;97965.63;4994812;28;20026;-89
2024/01/17 10:05:32;;;;;;;10.02;5.10;;;;;;;11.57;85.58;97964.72;4994217;28;20061;-89
2024/01/17 10:07:58;;;;;;;9.10;5.10;;;;;;;11.59;85.87;97968.13;4994669;28;20027;-89
2024/01/17 10:10:24;;;;;;;12.05;6.38;;;;;;;11.61;85.56;97972.44;4994264;28;20269;-89
2024/01/17 10:12:51;;;;;;;9.60;5.20;;;;;;;11.62;86.02;97968.00;4994270;28;20578;-86
2024/01/17 10:15:17;;;;;;;10.60;4.63;;;;;;;11.65;85.81;97956.47;4994438;28;20022;-89
2024/01/17 10:17:42;;;;;;;13.40;6.18;;;;;;;11.67;85.73;97950.19;4995772;28;20085;-89
2024/01/17 10:20:09;;;;;;;17.23;7.23;;;;;;;11.70;85.38;97955.34;4994498;28;20026;-88
2024/01/17 10:22:34;;;;;;;19.00;8.18;;;;;;;11.75;85.46;97950.69;4992822;28;20023;-88
2024/01/17 10:25:01;;;;;;;18.27;8.00;;;;;;;11.82;85.55;97948.63;4989796;28;20114;-89
2024/01/17 10:27:28;;;;;;;14.32;5.65;;;;;;;11.91;85.26;97944.69;4993773;28;20522;-89
2024/01/17 10:29:54;;;;;;;14.00;5.80;;;;;;;12.00;85.08;97928.44;4993901;28;20273;-87
2024/01/17 10:32:20;;;;;;;11.93;5.53;;;;;;;12.10;84.67;97928.91;4993158;28;20478;-89
2024/01/17 10:34:46;;;;;;;15.13;6.40;;;;;;;12.16;84.47;97914.53;4993427;28;20026;-88
2024/01/17 10:37:13;;;;;;;12.32;6.00;;;;;;;12.19;84.53;97917.03;5010531;28;20041;-88
2024/01/17 10:39:40;;;;;;;12.70;5.77;;;;;;;12.23;84.40;97923.88;5012205;28;20064;-84
2024/01/17 10:42:06;;;;;;;11.45;5.70;;;;;;;12.28;84.30;97919.22;4993131;28;20033;-89
2024/01/17 10:44:31;;;;;;;15.10;5.82;;;;;;;12.30;84.39;97900.69;4992480;28;20034;-89
2024/01/17 10:46:57;;;;;;;10.53;5.37;;;;;;;12.38;84.26;97897.66;4991402;28;20026;-88
2024/01/17 10:49:23;;;;;;;12.50;6.00;;;;;;;12.39;84.25;97902.00;4974960;28;20034;-88
2024/01/17 10:52:05;;;;;;;11.15;4.90;;;;;;;12.39;84.45;97905.50;4992844;28;20023;-89
2024/01/17 10:54:45;;;;;;;9.77;4.53;;;;;;;12.40;84.00;97891.38;4993000;28;20489;-88
2024/01/17 10:57:13;;;;;;;10.13;4.40;;;;;;;12.43;84.25;97893.03;4992678;28;20023;-85
2024/01/17 10:59:42;;;;;;;8.88;4.65;;;;;;;12.41;84.30;97895.72;4992639;28;20511;-89
2024/01/17 11:02:19;;;;;;;21.40;5.87;;;;;;;12.42;84.11;97897.44;4992645;28;20038;-88
2024/01/17 11:05:07;;;;;;;9.77;4.88;;;;;;;12.34;83.91;97876.69;4993020;28;20494;-88
2024/01/17 11:07:35;;;;;;;10.75;4.78;;;;;;;12.33;83.97;97887.34;4973049;28;20061;-88
2024/01/17 11:10:02;;;;;;;9.50;3.72;;;;;;;12.31;84.47;97900.59;4990102;28;20026;-83
2024/01/17 11:12:31;;;;;;;8.73;4.15;;;;;;;12.29;84.29;97912.16;4992640;28;20038;-86
2024/01/17 11:14:59;;;;;;;8.97;4.03;;;;;;;12.32;84.04;97912.88;4992588;28;20076;-85
2024/01/17 11:17:25;;;;;;;11.55;4.30;;;;;;;12.28;84.45;97903.41;4992523;28;20110;-89
2024/01/17 11:19:52;;;;;;;9.95;4.68;;;;;;;12.28;84.26;97908.66;4992178;28;20094;-88